Time;durP1;ratioP1;P1;durP2;ratioP2;P2;SDS_P1;SDS_P2;PMS_P1;PMS_P2;Temp;Humidity;BMP_temperature;BMP_pressure;BME280_temperature;BME280_humidity;BME280_pressure;Samples;Min_cycle;Max_cycle;Signal;HPM_P1;HPM_P2
2021/07/25 00:03:28;;;;;;;19.90;16.70;;;;;;;16.85;70.20;99631.05;254505;1104;116230;-67
2021/07/25 00:08:34;;;;;;;21.38;16.40;;;;;;;16.81;70.19;99635.41;254910;1104;117961;-67
2021/07/25 00:13:41;;;;;;;21.98;17.08;;;;;;;16.76;70.13;99630.05;254562;1104;116713;-67
2021/07/25 00:18:46;;;;;;;20.65;16.70;;;;;;;16.66;70.36;99627.40;254609;1104;115648;-66
2021/07/25 00:23:57;;;;;;;22.25;16.70;;;;;;;16.67;70.91;99610.98;255140;1104;117006;-68
2021/07/25 00:29:02;;;;;;;21.95;15.68;;;;;;;16.74;71.56;99606.09;255637;1104;116791;-67
2021/07/25 00:34:07;;;;;;;18.50;15.33;;;;;;;16.71;70.35;99595.08;256591;1104;115298;-68
2021/07/25 00:39:12;;;;;;;25.33;16.93;;;;;;;16.64;70.60;99587.30;255340;1104;115758;-67
2021/07/25 00:44:18;;;;;;;25.28;16.85;;;;;;;16.60;70.79;99585.41;255175;1104;116409;-67
2021/07/25 00:49:22;;;;;;;26.23;16.17;;;;;;;16.61;71.07;99577.06;256593;1104;115845;-66
2021/07/25 00:54:28;;;;;;;16.97;15.17;;;;;;;16.63;71.05;99580.28;255975;1098;115275;-67
2021/07/25 00:59:32;;;;;;;18.58;16.20;;;;;;;16.58;70.78;99574.92;255765;1104;116485;-68
2021/07/25 01:04:55;;;;;;;15.73;14.03;;;;;;;16.42;70.61;99565.34;257037;1104;116093;-67
2021/07/25 01:10:00;;;;;;;18.10;16.30;;;;;;;16.26;70.84;99572.66;257035;1104;115577;-68
2021/07/25 01:15:10;;;;;;;23.60;16.58;;;;;;;16.15;70.75;99571.12;256936;1104;115268;-67
2021/07/25 01:20:16;;;;;;;23.70;17.20;;;;;;;16.14;71.51;99564.94;257349;1104;115115;-66
2021/07/25 01:25:23;;;;;;;15.48;13.80;;;;;;;16.27;71.50;99562.71;256611;1104;116682;-68
2021/07/25 01:30:31;;;;;;;23.87;16.53;;;;;;;16.30;71.34;99559.47;255442;1104;117274;-67
2021/07/25 01:35:39;;;;;;;20.78;15.33;;;;;;;16.25;71.42;99562.18;255020;1104;117714;-69
2021/07/25 01:41:07;;;;;;;16.97;15.20;;;;;;;16.17;71.11;99550.13;255265;1104;116475;-69
2021/07/25 01:46:14;;;;;;;17.88;14.38;;;;;;;16.19;71.41;99547.98;254550;1104;115730;-67
2021/07/25 01:51:18;;;;;;;;;;;;;;;16.10;71.64;99536.17;255547;1104;116135;-68
2021/07/25 01:56:22;;;;;;;16.48;13.68;;;;;;;16.00;71.17;99537.02;257331;1104;102018;-68
2021/07/25 02:01:26;;;;;;;19.30;14.63;;;;;;;15.86;71.39;99540.58;255395;1104;115896;-67
2021/07/25 02:06:35;;;;;;;21.45;16.78;;;;;;;15.67;71.70;99541.15;254263;1099;117799;-67
2021/07/25 02:11:40;;;;;;;28.15;17.98;;;;;;;15.60;72.05;99535.25;254910;1104;116380;-67
2021/07/25 02:16:45;;;;;;;22.43;15.95;;;;;;;15.62;71.79;99538.47;255187;1104;115506;-67
2021/07/25 02:21:52;;;;;;;17.03;14.23;;;;;;;15.57;72.26;99535.02;255673;1104;116418;-68
2021/07/25 02:26:58;;;;;;;17.15;14.95;;;;;;;15.48;72.04;99532.84;255197;1100;115999;-68
2021/07/25 02:32:03;;;;;;;18.70;15.53;;;;;;;15.38;72.54;99532.05;254458;1104;116416;-67
2021/07/25 02:37:14;;;;;;;16.23;14.43;;;;;;;15.37;72.49;99535.80;255123;1104;115668;-69
2021/07/25 02:42:19;;;;;;;16.88;14.40;;;;;;;15.37;72.63;99538.49;255000;1104;115687;-69
2021/07/25 02:47:24;;;;;;;17.68;14.83;;;;;;;15.33;72.34;99537.41;255388;1104;115648;-68
2021/07/25 02:52:28;;;;;;;19.75;15.78;;;;;;;15.29;72.72;99550.58;254666;1104;115445;-68
2021/07/25 02:57:39;;;;;;;22.78;15.35;;;;;;;15.21;72.92;99547.65;256610;1104;115888;-69
2021/07/25 03:02:43;;;;;;;21.30;14.58;;;;;;;15.16;73.03;99545.77;256342;1104;115566;-69
2021/07/25 03:07:48;;;;;;;21.53;15.13;;;;;;;15.16;73.29;99549.26;257177;1104;115836;-69
2021/07/25 03:12:53;;;;;;;17.03;15.23;;;;;;;15.21;72.83;99548.45;257300;1104;115255;-69
2021/07/25 03:17:58;;;;;;;19.15;14.30;;;;;;;15.24;73.20;99547.11;257263;1104;115619;-67
2021/07/25 03:23:03;;;;;;;18.40;16.18;;;;;;;15.33;73.34;99540.91;257227;1104;116329;-67
2021/07/25 03:28:08;;;;;;;17.70;13.20;;;;;;;15.53;73.73;99550.03;257321;1104;116544;-67
2021/07/25 03:33:13;;;;;;;27.93;16.03;;;;;;;15.60;73.32;99548.68;255443;1104;116923;-67
2021/07/25 03:38:19;;;;;;;40.43;16.73;;;;;;;15.75;73.38;99558.61;254363;1104;117219;-66
2021/07/25 03:43:23;;;;;;;22.00;18.40;;;;;;;16.00;73.29;99555.03;256606;1104;118025;-67
2021/07/25 03:48:29;;;;;;;19.28;15.43;;;;;;;16.39;73.76;99555.94;255849;1104;115698;-67
2021/07/25 03:53:37;;;;;;;28.35;17.48;;;;;;;16.73;73.58;99555.23;255559;1104;115758;-68
2021/07/25 03:58:42;;;;;;;21.25;16.75;;;;;;;17.03;73.86;99546.94;255640;1104;118222;-67
2021/07/25 04:03:47;;;;;;;20.45;16.65;;;;;;;17.28;73.49;99548.61;255868;1104;116230;-67
2021/07/25 04:08:51;;;;;;;18.23;16.05;;;;;;;17.40;73.36;99550.94;255363;1104;116245;-66
2021/07/25 04:13:57;;;;;;;21.40;17.90;;;;;;;17.57;73.53;99547.80;255600;1104;117894;-67
2021/07/25 04:19:02;;;;;;;20.47;17.60;;;;;;;17.82;73.16;99548.35;255309;1099;116511;-66
2021/07/25 04:24:07;;;;;;;18.25;16.08;;;;;;;18.13;73.04;99543.40;254754;1104;117147;-67
2021/07/25 04:29:17;;;;;;;19.90;17.15;;;;;;;18.42;73.02;99548.69;255338;1104;116365;-67
2021/07/25 04:34:24;;;;;;;16.85;14.88;;;;;;;18.54;72.87;99555.56;255310;1104;116322;-67
2021/07/25 04:39:30;;;;;;;19.05;16.20;;;;;;;18.75;72.86;99548.80;256424;1104;115300;-68
2021/07/25 04:44:46;;;;;;;14.83;13.40;;;;;;;19.11;72.27;99552.55;255936;1104;116418;-68
2021/07/25 04:50:15;;;;;;;15.23;13.67;;;;;;;19.53;71.50;99558.10;254160;1104;116998;-67
2021/07/25 04:55:25;;;;;;;15.53;14.03;;;;;;;19.98;71.40;99561.83;254377;1104;116486;-67
2021/07/25 05:00:31;;;;;;;20.80;14.53;;;;;;;20.09;70.98;99561.33;254684;1104;115237;-67
2021/07/25 05:05:37;;;;;;;15.98;14.35;;;;;;;20.68;70.08;99558.75;255313;1104;115019;-67
2021/07/25 05:10:43;;;;;;;14.98;12.55;;;;;;;20.94;69.94;99559.77;254505;1104;115576;-67
2021/07/25 05:15:48;;;;;;;16.80;12.82;;;;;;;21.16;69.07;99564.38;257024;1104;116244;-67
2021/07/25 05:21:06;;;;;;;16.68;12.93;;;;;;;22.75;67.17;99568.68;255280;1104;116142;-68
2021/07/25 05:26:12;;;;;;;15.53;12.48;;;;;;;26.18;64.43;99576.97;257174;1104;115733;-70
2021/07/25 05:31:18;;;;;;;13.73;12.28;;;;;;;29.07;60.46;99582.56;257218;1104;117031;-70
2021/07/25 05:36:23;;;;;;;15.93;13.68;;;;;;;31.60;56.20;99587.97;257056;1104;115770;-70
2021/07/25 05:41:27;;;;;;;12.18;10.95;;;;;;;33.51;52.83;99590.33;254196;1104;115599;-69
2021/07/25 05:46:31;;;;;;;14.03;8.73;;;;;;;34.94;49.03;99588.23;254062;1104;115728;-70
2021/07/25 05:51:39;;;;;;;8.65;7.85;;;;;;;35.78;46.07;99586.97;255040;1100;116507;-70
2021/07/25 05:56:44;;;;;;;7.93;6.98;;;;;;;36.52;44.07;99600.59;254241;1104;115143;-70
2021/07/25 06:01:49;;;;;;;10.25;6.38;;;;;;;37.39;41.85;99592.38;255727;1104;118002;-70
2021/07/25 06:06:53;;;;;;;8.68;6.60;;;;;;;37.86;40.18;99588.91;254934;1104;117504;-71
2021/07/25 06:11:58;;;;;;;8.98;6.60;;;;;;;37.29;39.28;99582.22;254880;1104;115806;-71
2021/07/25 06:17:03;;;;;;;10.23;6.85;;;;;;;37.13;39.32;99578.44;253959;1104;116307;-70
2021/07/25 06:22:07;;;;;;;8.57;7.13;;;;;;;37.95;38.53;99578.00;254956;1104;115467;-69
2021/07/25 06:27:12;;;;;;;6.65;6.05;;;;;;;38.35;37.44;99581.69;254672;1104;115611;-72
2021/07/25 06:32:16;;;;;;;7.50;6.80;;;;;;;37.39;37.53;99580.47;254133;1104;115191;-71
2021/07/25 06:37:21;;;;;;;9.65;7.08;;;;;;;36.20;37.92;99578.68;256351;1104;115495;-70
2021/07/25 06:42:27;;;;;;;7.73;6.98;;;;;;;35.95;38.49;99590.02;256027;1104;115968;-71
2021/07/25 06:47:31;;;;;;;7.63;7.03;;;;;;;35.16;39.25;99586.95;254250;1104;115766;-70
2021/07/25 06:52:39;;;;;;;9.40;6.47;;;;;;;34.87;38.96;99591.81;254163;1104;115889;-71
2021/07/25 06:57:47;;;;;;;8.68;7.83;;;;;;;34.46;38.89;99586.01;256316;1104;116811;-72
2021/07/25 07:02:53;;;;;;;7.10;6.38;;;;;;;33.88;39.47;99595.53;254274;1104;115801;-73
2021/07/25 07:08:00;;;;;;;8.00;7.00;;;;;;;33.41;40.08;99591.09;254093;1104;117973;-75
2021/07/25 07:13:08;;;;;;;8.40;7.13;;;;;;;33.48;40.34;99593.88;254135;1104;118518;-75
2021/07/25 07:18:12;;;;;;;8.03;7.30;;;;;;;33.95;40.84;99589.19;255368;1104;117571;-73
2021/07/25 07:23:20;;;;;;;7.93;7.18;;;;;;;34.60;40.24;99597.02;256527;1104;118222;-72
2021/07/25 07:28:25;;;;;;;6.67;6.03;;;;;;;35.06;40.29;99585.02;254689;1104;116769;-68
2021/07/25 07:33:29;;;;;;;6.80;6.30;;;;;;;35.41;39.31;99590.40;254314;1104;117200;-71
2021/07/25 07:38:35;;;;;;;8.73;7.93;;;;;;;35.44;39.54;99594.34;256164;1104;116022;-71
2021/07/25 07:43:43;;;;;;;8.23;7.53;;;;;;;35.36;39.46;99581.72;257307;1104;118987;-71
2021/07/25 07:48:46;;;;;;;11.65;8.13;;;;;;;34.77;39.04;99585.13;257253;1104;115300;-71
2021/07/25 07:53:50;;;;;;;7.07;6.33;;;;;;;34.38;38.91;99596.30;256581;1104;115704;-71
2021/07/25 07:58:54;;;;;;;7.60;7.00;;;;;;;33.90;39.51;99597.91;257270;1104;115878;-73
2021/07/25 08:03:58;;;;;;;8.38;6.50;;;;;;;33.55;40.17;99582.84;256342;1104;116216;-71
2021/07/25 08:09:02;;;;;;;8.03;7.43;;;;;;;33.35;40.32;99590.69;254014;1104;117389;-70
2021/07/25 08:14:06;;;;;;;11.10;8.15;;;;;;;33.23;41.58;99587.48;254165;1104;116183;-70
2021/07/25 08:19:11;;;;;;;7.83;7.08;;;;;;;33.37;40.63;99580.03;255139;1104;117263;-70
2021/07/25 08:24:16;;;;;;;11.70;7.68;;;;;;;33.35;42.46;99579.63;254115;1104;116726;-70
2021/07/25 08:29:21;;;;;;;8.87;8.07;;;;;;;33.48;41.83;99582.03;254118;1104;117077;-71
2021/07/25 08:34:27;;;;;;;7.13;6.43;;;;;;;33.44;41.42;99576.50;255541;1104;115727;-71
2021/07/25 08:39:32;;;;;;;9.20;8.30;;;;;;;33.62;41.65;99576.54;255019;1104;116708;-71
2021/07/25 08:44:57;;;;;;;10.48;8.75;;;;;;;33.64;41.14;99580.46;254338;1104;117903;-71
2021/07/25 08:50:07;;;;;;;11.88;8.50;;;;;;;33.35;40.97;99574.11;255102;1104;116628;-72
2021/07/25 08:55:15;;;;;;;8.63;7.83;;;;;;;33.04;40.86;99575.58;254248;1098;117100;-71
2021/07/25 09:00:23;;;;;;;10.60;8.73;;;;;;;33.12;42.47;99579.16;254199;1104;116029;-71
2021/07/25 09:05:27;;;;;;;12.58;7.20;;;;;;;33.33;41.93;99570.16;255483;1104;115817;-70
2021/07/25 09:10:32;;;;;;;9.20;8.40;;;;;;;32.80;41.07;99577.06;255812;1104;115112;-71
2021/07/25 09:15:37;;;;;;;8.47;7.70;;;;;;;32.48;40.67;99578.84;255628;1104;115714;-71
2021/07/25 09:20:43;;;;;;;8.78;7.93;;;;;;;32.32;41.22;99570.88;256121;1104;115657;-71
2021/07/25 09:25:54;;;;;;;8.83;7.67;;;;;;;31.96;41.20;99580.05;254204;1104;115013;-71
2021/07/25 09:31:15;;;;;;;8.33;7.53;;;;;;;31.76;41.28;99573.98;254756;1104;115842;-72
2021/07/25 09:36:23;;;;;;;8.73;7.77;;;;;;;31.65;41.53;99568.34;253931;1104;115800;-72
2021/07/25 09:41:29;;;;;;;8.63;7.93;;;;;;;31.70;42.57;99565.27;255569;1104;115951;-72
2021/07/25 09:46:49;;;;;;;8.43;7.58;;;;;;;32.03;42.96;99577.35;255952;1104;115495;-72
2021/07/25 09:52:07;;;;;;;8.40;7.58;;;;;;;32.10;42.08;99566.38;257272;1104;115395;-72
2021/07/25 09:57:12;;;;;;;8.30;7.70;;;;;;;32.39;41.55;99556.35;257284;1104;116230;-75
2021/07/25 10:02:34;;;;;;;8.98;8.28;;;;;;;32.63;40.42;99552.13;255471;1104;116610;-72
2021/07/25 10:07:44;;;;;;;8.35;6.83;;;;;;;32.43;40.52;99546.89;255767;1104;115728;-71
2021/07/25 10:12:49;;;;;;;16.80;8.33;;;;;;;32.43;40.42;99551.62;254470;1104;116544;-72
2021/07/25 10:17:54;;;;;;;7.33;6.63;;;;;;;32.20;39.99;99551.06;253930;1104;116304;-69
2021/07/25 10:23:02;;;;;;;8.90;8.10;;;;;;;31.58;39.83;99554.50;255387;1104;116023;-72
2021/07/25 10:28:07;;;;;;;10.38;7.70;;;;;;;31.14;40.14;99558.02;255629;1104;115497;-71
2021/07/25 10:33:15;;;;;;;8.37;7.53;;;;;;;30.61;40.42;99560.07;255503;1104;116350;-71
2021/07/25 10:38:19;;;;;;;9.23;8.33;;;;;;;30.09;41.42;99563.63;254139;1104;115516;-70
2021/07/25 10:43:25;;;;;;;12.63;8.43;;;;;;;29.90;40.90;99580.19;254242;1104;115564;-73
2021/07/25 10:48:31;;;;;;;9.13;8.33;;;;;;;29.60;40.93;99571.83;255466;1104;116223;-73
2021/07/25 10:53:37;;;;;;;10.37;9.27;;;;;;;29.36;41.23;99572.91;254776;1104;116789;-71
2021/07/25 10:59:01;;;;;;;9.00;8.30;;;;;;;29.30;41.67;99579.89;254246;1104;116444;-69
2021/07/25 11:04:05;;;;;;;8.53;7.73;;;;;;;29.26;42.37;99573.53;254238;1104;116926;-72
2021/07/25 11:09:31;;;;;;;10.50;7.80;;;;;;;29.41;42.43;99564.42;256302;1104;115699;-72
2021/07/25 11:15:31;;;;;;;9.80;8.50;;;;;;;29.88;41.84;99561.31;254370;1104;115837;-71
2021/07/25 11:20:55;;;;;;;9.75;8.75;;;;;;;30.57;41.93;99558.47;253823;1104;115826;-70
2021/07/25 11:26:32;;;;;;;8.23;7.50;;;;;;;31.03;40.90;99548.80;254186;1103;116020;-71
2021/07/25 11:31:40;;;;;;;10.30;9.20;;;;;;;31.18;40.18;99549.80;253968;1104;115936;-71
2021/07/25 11:36:50;;;;;;;9.93;8.73;;;;;;;31.15;39.92;99547.80;255535;1104;116970;-71
2021/07/25 11:41:55;;;;;;;21.93;12.40;;;;;;;31.30;41.03;99546.75;254205;1104;114769;-71
2021/07/25 11:47:00;;;;;;;11.25;8.80;;;;;;;31.70;39.54;99537.72;257252;1103;117294;-71
2021/07/25 11:52:09;;;;;;;10.10;8.13;;;;;;;31.68;39.36;99540.06;256487;1104;116126;-72
2021/07/25 11:57:15;;;;;;;9.63;7.30;;;;;;;31.54;39.12;99555.63;255169;1104;138990;-72
2021/07/25 12:02:34;;;;;;;11.33;8.18;;;;;;;31.44;39.13;99540.61;257073;1104;117301;-72
2021/07/25 12:07:44;;;;;;;9.70;7.95;;;;;;;31.47;39.27;99539.84;257116;1104;116716;-70
2021/07/25 12:12:48;;;;;;;10.10;9.15;;;;;;;31.56;39.24;99540.30;256113;1104;115438;-73
2021/07/25 12:17:52;;;;;;;7.03;6.30;;;;;;;31.53;38.77;99541.06;257208;1104;116539;-73
2021/07/25 12:23:05;;;;;;;9.63;8.15;;;;;;;31.31;38.73;99536.53;255725;1104;115135;-73
2021/07/25 12:28:14;;;;;;;10.37;9.30;;;;;;;31.07;38.76;99548.84;254983;1104;116437;-73
2021/07/25 12:33:30;;;;;;;9.40;7.20;;;;;;;30.87;38.32;99542.73;256251;1104;115249;-71
2021/07/25 12:38:34;;;;;;;8.53;7.83;;;;;;;30.48;39.62;99540.24;254170;1104;115391;-70
2021/07/25 12:43:39;;;;;;;8.20;7.53;;;;;;;29.98;40.44;99537.89;254166;1104;115961;-73
2021/07/25 12:48:43;;;;;;;8.63;7.80;;;;;;;29.75;40.34;99540.68;253969;1099;117243;-72
2021/07/25 12:53:56;;;;;;;9.73;8.90;;;;;;;29.66;41.59;99543.67;255079;1104;115030;-72
2021/07/25 12:59:05;;;;;;;8.45;7.63;;;;;;;29.81;42.07;99525.48;254137;1104;115550;-72
2021/07/25 13:04:20;;;;;;;8.37;7.63;;;;;;;30.01;41.68;99526.98;255214;1104;116525;-71
2021/07/25 13:09:25;;;;;;;10.55;7.10;;;;;;;30.11;41.69;99517.33;254985;1104;115662;-72
2021/07/25 13:14:31;;;;;;;8.97;7.87;;;;;;;30.51;41.64;99504.91;254516;1104;115802;-71
2021/07/25 13:19:37;;;;;;;8.85;7.98;;;;;;;30.75;40.73;99499.73;254215;1104;117036;-70
2021/07/25 13:24:43;;;;;;;9.40;8.23;;;;;;;31.01;39.38;99501.59;254205;1104;117534;-70
2021/07/25 13:29:48;;;;;;;10.50;7.55;;;;;;;31.25;39.31;99496.73;254533;1104;118672;-71
2021/07/25 13:34:54;;;;;;;7.87;6.90;;;;;;;31.42;37.89;99494.16;253976;1100;116442;-69
2021/07/25 13:39:59;;;;;;;9.33;8.57;;;;;;;31.58;37.96;99498.59;254729;1104;116201;-70
2021/07/25 13:45:09;;;;;;;8.68;7.88;;;;;;;31.62;38.36;99500.22;257167;1104;115455;-70
2021/07/25 13:50:15;;;;;;;9.37;8.47;;;;;;;31.72;37.95;99502.30;254018;1104;115477;-67
2021/07/25 13:55:20;;;;;;;9.30;8.50;;;;;;;31.75;36.92;99507.05;254564;1104;115819;-71
2021/07/25 14:00:24;;;;;;;;;;;;;;;31.76;37.30;99494.06;254261;1104;116355;-71
2021/07/25 14:05:33;;;;;;;8.85;8.08;;;;;;;31.63;37.28;99501.00;255115;1099;103889;-71
2021/07/25 14:10:38;;;;;;;8.53;7.73;;;;;;;31.51;37.86;99496.57;253918;1104;116908;-72
2021/07/25 14:15:43;;;;;;;10.13;8.47;;;;;;;31.28;36.85;99499.52;255335;1104;115822;-72
2021/07/25 14:20:48;;;;;;;10.45;8.80;;;;;;;31.07;37.77;99502.05;257367;1104;116203;-72
2021/07/25 14:25:53;;;;;;;9.20;8.40;;;;;;;30.91;37.71;99496.75;257078;1104;115423;-72
2021/07/25 14:30:58;;;;;;;9.23;8.43;;;;;;;30.67;37.84;99505.52;257207;1104;116060;-72
2021/07/25 14:36:12;;;;;;;9.88;9.05;;;;;;;30.34;38.66;99515.28;257049;1104;115884;-71
2021/07/25 14:41:19;;;;;;;9.65;8.73;;;;;;;30.03;39.69;99515.63;254246;1100;116819;-71
2021/07/25 14:46:26;;;;;;;9.53;8.73;;;;;;;29.65;40.71;99531.13;256627;1104;116391;-70
2021/07/25 14:51:30;;;;;;;10.53;9.68;;;;;;;29.15;40.72;99534.89;255329;1104;116203;-70
2021/07/25 14:56:35;;;;;;;12.10;9.70;;;;;;;28.77;40.99;99535.67;254426;1104;117575;-71
2021/07/25 15:01:46;;;;;;;10.35;9.35;;;;;;;28.42;42.73;99541.23;254600;1104;116809;-70
2021/07/25 15:06:50;;;;;;;16.93;10.43;;;;;;;28.17;43.79;99544.16;254683;1104;116874;-71
2021/07/25 15:11:55;;;;;;;10.53;9.53;;;;;;;27.97;42.86;99534.30;254919;1104;116342;-71
2021/07/25 15:17:02;;;;;;;10.23;8.83;;;;;;;27.90;43.61;99541.55;255140;1104;115760;-69
2021/07/25 15:22:08;;;;;;;11.98;9.45;;;;;;;27.90;43.51;99530.59;255397;1104;116042;-72
2021/07/25 15:27:13;;;;;;;9.45;8.53;;;;;;;27.88;44.54;99538.37;254109;1098;116705;-70
2021/07/25 15:32:17;;;;;;;10.50;9.60;;;;;;;27.79;44.65;99536.63;254219;1104;115807;-70
2021/07/25 15:37:21;;;;;;;13.75;9.15;;;;;;;27.65;44.38;99536.27;254548;1104;115654;-70
2021/07/25 15:42:26;;;;;;;9.60;8.63;;;;;;;27.48;44.77;99542.86;254344;1104;115642;-70
2021/07/25 15:47:33;;;;;;;14.45;10.03;;;;;;;27.13;45.31;99537.25;255121;1104;115127;-69
2021/07/25 15:52:41;;;;;;;13.43;9.67;;;;;;;26.96;45.50;99523.86;255841;1104;115928;-70
2021/07/25 15:57:45;;;;;;;10.58;9.48;;;;;;;26.64;45.36;99522.13;255902;1104;115854;-71
2021/07/25 16:02:50;;;;;;;12.65;9.45;;;;;;;26.37;45.81;99516.28;254663;1104;117410;-69
2021/07/25 16:07:54;;;;;;;9.45;8.60;;;;;;;26.24;45.95;99511.17;255570;1104;117925;-70
2021/07/25 16:12:58;;;;;;;14.27;8.93;;;;;;;26.14;46.47;99507.77;257047;1104;116676;-70
2021/07/25 16:18:02;;;;;;;8.80;8.00;;;;;;;25.95;46.32;99525.89;257037;1104;116956;-69
2021/07/25 16:23:06;;;;;;;7.33;6.73;;;;;;;25.55;46.53;99545.61;254255;1104;116444;-68
2021/07/25 16:28:10;;;;;;;6.98;5.60;;;;;;;25.28;46.51;99521.69;255804;1104;116341;-70
2021/07/25 16:33:14;;;;;;;7.08;6.48;;;;;;;25.10;46.39;99521.84;256936;1104;116363;-71
2021/07/25 16:38:18;;;;;;;6.38;5.35;;;;;;;24.96;47.15;99524.09;257099;1104;116183;-70
2021/07/25 16:43:23;;;;;;;7.08;6.10;;;;;;;24.75;46.92;99528.75;257048;1104;115644;-72
2021/07/25 16:48:27;;;;;;;7.80;6.33;;;;;;;24.69;47.66;99536.33;254226;1104;116834;-70
2021/07/25 16:53:32;;;;;;;8.13;6.68;;;;;;;24.54;47.80;99533.39;254257;1104;118244;-70
2021/07/25 16:58:37;;;;;;;9.05;7.03;;;;;;;24.36;48.06;99538.97;255456;1104;115261;-70
2021/07/25 17:03:43;;;;;;;9.05;8.33;;;;;;;24.25;49.05;99535.03;254159;1104;115861;-68
2021/07/25 17:08:49;;;;;;;11.95;8.48;;;;;;;24.09;49.54;99529.34;255327;1104;116973;-69
2021/07/25 17:13:55;;;;;;;9.18;8.35;;;;;;;23.96;49.74;99524.92;254861;1104;116612;-71
2021/07/25 17:19:00;;;;;;;10.33;8.18;;;;;;;23.95;50.22;99533.41;254964;1104;115746;-71
2021/07/25 17:24:05;;;;;;;8.87;8.00;;;;;;;23.75;50.44;99530.31;254285;1104;116020;-70
2021/07/25 17:29:10;;;;;;;8.65;7.95;;;;;;;23.59;51.20;99526.52;254386;1104;116412;-70
2021/07/25 17:34:15;;;;;;;21.70;10.38;;;;;;;23.51;51.68;99536.30;254198;1104;115768;-70
2021/07/25 17:39:21;;;;;;;8.83;7.93;;;;;;;23.47;52.06;99529.11;255138;1104;116111;-70
2021/07/25 17:44:27;;;;;;;14.87;9.33;;;;;;;23.44;53.02;99541.44;254906;1104;115496;-69
2021/07/25 17:49:35;;;;;;;15.03;9.00;;;;;;;23.28;53.50;99532.19;254024;1104;115706;-69
2021/07/25 17:54:40;;;;;;;14.38;9.83;;;;;;;23.12;53.83;99533.83;254693;1104;116201;-69
2021/07/25 17:59:45;;;;;;;10.10;9.00;;;;;;;22.93;53.82;99526.01;254136;1104;115399;-70
2021/07/25 18:04:50;;;;;;;9.45;8.20;;;;;;;22.76;54.65;99526.00;254784;1104;115983;-70
2021/07/25 18:09:55;;;;;;;12.88;10.78;;;;;;;22.60;55.50;99516.75;254140;1104;115690;-71
2021/07/25 18:15:03;;;;;;;10.17;9.23;;;;;;;22.43;55.66;99521.04;254205;1104;116149;-68
2021/07/25 18:20:25;;;;;;;10.20;9.13;;;;;;;22.24;56.19;99528.69;254272;1104;114968;-69
2021/07/25 18:25:30;;;;;;;11.15;9.58;;;;;;;21.96;56.20;99524.60;256672;1104;115536;-70
2021/07/25 18:30:35;;;;;;;9.45;8.70;;;;;;;21.66;56.90;99537.10;256921;1104;115194;-70
2021/07/25 18:35:40;;;;;;;14.83;10.08;;;;;;;21.46;57.51;99547.36;257211;1104;116097;-70
2021/07/25 18:41:04;;;;;;;15.13;8.55;;;;;;;21.17;57.93;99553.22;256999;1104;115281;-70
2021/07/25 18:46:16;;;;;;;23.13;10.03;;;;;;;21.00;58.66;99552.31;256847;1100;117114;-68
2021/07/25 18:51:23;;;;;;;16.00;10.18;;;;;;;20.84;58.86;99549.16;253862;1104;116517;-70
2021/07/25 18:56:27;;;;;;;17.98;11.05;;;;;;;20.77;59.62;99546.09;254571;1104;116350;-70
2021/07/25 19:01:35;;;;;;;19.90;12.40;;;;;;;20.74;60.01;99543.99;253508;1104;116779;-72
2021/07/25 19:06:42;;;;;;;14.63;11.80;;;;;;;20.71;60.25;99550.83;253634;1104;116973;-72
2021/07/25 19:11:47;;;;;;;13.13;11.65;;;;;;;20.61;60.59;99555.66;253460;1104;117175;-71
2021/07/25 19:16:54;;;;;;;16.08;10.93;;;;;;;20.40;60.29;99555.31;256000;1104;117440;-67
2021/07/25 19:21:58;;;;;;;12.65;11.45;;;;;;;20.19;60.94;99576.55;253572;1104;116580;-70
2021/07/25 19:27:03;;;;;;;15.45;10.08;;;;;;;20.05;61.16;99586.59;253769;1104;117822;-68
2021/07/25 19:32:09;;;;;;;16.30;11.75;;;;;;;19.90;61.98;99589.57;253692;1104;117082;-71
2021/07/25 19:37:16;;;;;;;12.63;11.35;;;;;;;19.91;62.58;99586.56;253725;1104;117099;-71
2021/07/25 19:42:26;;;;;;;15.35;13.35;;;;;;;19.99;63.00;99594.00;253562;1104;117592;-69
2021/07/25 19:47:31;;;;;;;16.93;14.10;;;;;;;20.06;63.02;99593.60;253514;1104;120453;-71
2021/07/25 19:52:39;;;;;;;15.20;11.78;;;;;;;20.08;63.58;99594.11;254157;1104;117074;-72
2021/07/25 19:57:59;;;;;;;12.45;11.25;;;;;;;19.98;63.51;99605.12;255574;1104;116512;-69
2021/07/25 20:03:20;;;;;;;13.88;12.45;;;;;;;19.91;63.86;99602.00;253923;1104;116128;-67
2021/07/25 20:08:26;;;;;;;16.28;14.78;;;;;;;19.98;64.05;99597.00;253976;1104;115550;-70
2021/07/25 20:13:33;;;;;;;13.93;12.50;;;;;;;20.02;64.54;99592.59;253627;1100;116104;-70
2021/07/25 20:18:40;;;;;;;16.20;13.50;;;;;;;20.07;64.53;99579.77;255266;1104;116532;-69
2021/07/25 20:23:47;;;;;;;16.25;14.58;;;;;;;20.09;64.71;99582.18;254417;1104;115600;-69
2021/07/25 20:28:52;;;;;;;14.45;13.03;;;;;;;20.15;65.15;99578.28;253690;1104;114839;-68
2021/07/25 20:33:57;;;;;;;18.73;14.03;;;;;;;20.23;65.04;99564.02;253494;1104;115891;-69
2021/07/25 20:39:02;;;;;;;17.95;16.18;;;;;;;20.24;65.43;99557.50;255140;1104;116306;-69
2021/07/25 20:44:07;;;;;;;16.53;14.90;;;;;;;20.24;65.48;99552.09;254942;1104;115746;-69
2021/07/25 20:49:13;;;;;;;19.15;14.13;;;;;;;20.25;65.55;99536.64;257103;1103;118586;-67
2021/07/25 20:54:18;;;;;;;17.90;15.95;;;;;;;20.26;65.38;99525.52;256953;1104;116658;-70
2021/07/25 20:59:29;;;;;;;20.70;17.45;;;;;;;20.16;65.58;99523.05;257142;1104;115664;-68
2021/07/25 21:04:53;;;;;;;17.90;16.00;;;;;;;20.06;65.47;99515.94;254980;1104;115757;-68
2021/07/25 21:10:18;;;;;;;18.85;15.90;;;;;;;20.06;65.67;99515.13;253781;1104;115480;-70
2021/07/25 21:15:44;;;;;;;22.40;15.58;;;;;;;19.98;65.66;99516.64;253633;1104;115887;-68
2021/07/25 21:21:10;;;;;;;19.10;16.00;;;;;;;19.92;65.96;99517.84;257340;1104;117335;-68
2021/07/25 21:26:35;;;;;;;18.05;15.45;;;;;;;19.88;65.77;99516.83;257221;1104;117058;-69
2021/07/25 21:31:40;;;;;;;28.05;16.98;;;;;;;19.79;65.58;99516.76;257197;1104;116383;-68
2021/07/25 21:36:45;;;;;;;22.70;16.05;;;;;;;19.76;66.08;99511.14;257261;1104;117110;-69
2021/07/25 21:41:50;;;;;;;18.03;15.07;;;;;;;19.69;66.01;99505.33;257132;1104;117413;-68
2021/07/25 21:46:55;;;;;;;19.70;16.68;;;;;;;19.61;66.27;99490.59;255429;1104;115902;-68
2021/07/25 21:52:00;;;;;;;17.43;14.95;;;;;;;19.50;66.14;99489.17;253636;1104;116588;-68
2021/07/25 21:57:05;;;;;;;18.75;16.50;;;;;;;19.35;66.39;99481.34;253927;1104;116125;-68
2021/07/25 22:02:24;;;;;;;18.03;15.65;;;;;;;19.23;66.28;99472.93;254478;1104;116193;-69
2021/07/25 22:07:31;;;;;;;18.80;16.90;;;;;;;19.17;66.71;99464.91;257053;1104;117098;-68
2021/07/25 22:12:36;;;;;;;;;;;;;;;19.19;67.03;99451.10;253753;1104;117640;-67
2021/07/25 22:17:41;;;;;;;15.35;13.98;;;;;;;19.27;67.16;99454.99;254307;1104;103477;-68
2021/07/25 22:22:46;;;;;;;13.43;12.10;;;;;;;19.31;67.46;99447.89;253463;1104;116091;-68
2021/07/25 22:27:51;;;;;;;14.50;13.07;;;;;;;19.33;67.13;99440.29;253576;1104;116707;-69
2021/07/25 22:32:56;;;;;;;13.40;11.13;;;;;;;19.31;66.75;99448.70;256272;1104;116977;-68
2021/07/25 22:38:01;;;;;;;10.40;9.40;;;;;;;19.36;66.27;99450.50;254658;1104;116658;-69
2021/07/25 22:43:07;;;;;;;11.18;10.05;;;;;;;19.44;65.89;99453.32;253616;1099;117009;-69
2021/07/25 22:48:13;;;;;;;8.58;7.75;;;;;;;19.56;65.60;99460.98;253467;1104;117765;-69
2021/07/25 22:53:18;;;;;;;9.23;8.30;;;;;;;19.66;65.16;99460.75;257070;1104;118160;-68
2021/07/25 22:58:23;;;;;;;9.23;8.05;;;;;;;19.77;64.62;99459.45;257025;1104;117559;-68
2021/07/25 23:03:28;;;;;;;9.85;8.95;;;;;;;19.87;64.56;99463.86;257080;1104;116004;-67
2021/07/25 23:08:33;;;;;;;10.00;8.90;;;;;;;19.97;64.20;99470.95;257026;1104;117650;-68
2021/07/25 23:13:38;;;;;;;8.53;7.83;;;;;;;20.05;63.88;99454.80;257087;1104;116973;-68
2021/07/25 23:18:41;;;;;;;8.63;7.83;;;;;;;20.09;63.56;99452.30;257131;1104;115310;-68